Time;durP1;ratioP1;P1;durP2;ratioP2;P2;SDS_P1;SDS_P2;PMS_P1;PMS_P2;Temp;Humidity;BMP_temperature;BMP_pressure;BME280_temperature;BME280_humidity;BME280_pressure;Samples;Min_cycle;Max_cycle;Signal;HPM_P1;HPM_P2
2021/10/10 00:01:14;;;;;;;15.63;14.32;;;4.80;99.90;;;;;;4947028;29;20051;-78
2021/10/10 00:03:41;;;;;;;17.17;15.88;;;4.80;99.90;;;;;;4926404;29;20047;-76
2021/10/10 00:06:07;;;;;;;17.40;16.02;;;4.80;99.90;;;;;;4954488;29;20062;-75
2021/10/10 00:08:33;;;;;;;15.45;13.98;;;4.80;99.90;;;;;;4954373;29;20035;-75
2021/10/10 00:10:59;;;;;;;16.85;15.43;;;4.90;99.90;;;;;;4934571;29;20477;-76
2021/10/10 00:13:26;;;;;;;18.48;16.85;;;4.90;99.90;;;;;;4920516;29;20050;-74
2021/10/10 00:15:52;;;;;;;16.48;15.27;;;5.00;99.90;;;;;;4937383;29;20040;-76
2021/10/10 00:18:21;;;;;;;16.35;15.05;;;4.80;99.90;;;;;;4949106;29;20480;-75
2021/10/10 00:20:47;;;;;;;15.40;14.07;;;4.70;99.90;;;;;;4950504;29;20035;-75
2021/10/10 00:23:14;;;;;;;17.48;15.40;;;4.60;99.90;;;;;;4936476;29;20039;-75
2021/10/10 00:25:40;;;;;;;18.58;16.63;;;4.60;99.90;;;;;;4937222;29;20386;-75
2021/10/10 00:28:06;;;;;;;15.85;14.57;;;4.60;99.90;;;;;;4939197;29;20397;-75
2021/10/10 00:30:33;;;;;;;15.55;14.15;;;4.50;99.90;;;;;;4954900;29;20042;-75
2021/10/10 00:32:59;;;;;;;16.25;15.05;;;4.40;99.90;;;;;;4942544;29;20051;-76
2021/10/10 00:35:25;;;;;;;16.77;15.38;;;4.40;99.90;;;;;;4940265;29;20032;-75
2021/10/10 00:37:52;;;;;;;18.13;15.13;;;4.40;99.90;;;;;;4922074;29;20054;-76
2021/10/10 00:40:18;;;;;;;16.73;15.45;;;4.40;99.90;;;;;;4955769;29;20046;-75
2021/10/10 00:42:44;;;;;;;16.42;15.05;;;4.30;99.90;;;;;;4937395;29;20043;-75
2021/10/10 00:45:11;;;;;;;18.17;16.27;;;4.30;99.90;;;;;;4941801;29;20031;-75
2021/10/10 00:47:37;;;;;;;17.10;15.70;;;4.30;99.90;;;;;;4956299;29;20163;-75
2021/10/10 00:50:05;;;;;;;16.08;14.23;;;4.40;99.90;;;;;;4935249;29;20047;-75
2021/10/10 00:52:38;;;;;;;16.35;14.73;;;4.40;99.90;;;;;;4945086;29;20039;-75
2021/10/10 00:55:06;;;;;;;15.45;14.07;;;4.20;99.90;;;;;;4945057;29;20035;-75
2021/10/10 00:57:32;;;;;;;16.30;14.90;;;4.20;99.90;;;;;;4954378;29;20042;-76
2021/10/10 00:59:59;;;;;;;14.75;13.55;;;4.10;99.90;;;;;;4942195;29;20050;-76
2021/10/10 01:02:26;;;;;;;17.40;15.60;;;4.10;99.90;;;;;;4942218;29;20051;-75
2021/10/10 01:04:52;;;;;;;18.00;16.25;;;4.10;99.90;;;;;;4952588;29;20043;-76
2021/10/10 01:07:21;;;;;;;18.55;16.95;;;4.20;99.90;;;;;;4952874;29;20469;-75
2021/10/10 01:09:47;;;;;;;16.38;14.88;;;4.10;99.90;;;;;;4937735;29;20401;-76
2021/10/10 01:12:13;;;;;;;18.17;16.67;;;4.00;99.90;;;;;;4940184;29;20023;-76
2021/10/10 01:14:40;;;;;;;19.00;16.80;;;4.10;99.90;;;;;;4936602;29;20048;-75
2021/10/10 01:17:07;;;;;;;15.25;13.95;;;4.00;99.90;;;;;;4934886;29;20043;-75
2021/10/10 01:19:34;;;;;;;16.02;14.80;;;4.00;99.90;;;;;;4935156;29;20738;-75
2021/10/10 01:22:01;;;;;;;17.77;16.05;;;4.00;99.90;;;;;;4952059;29;20031;-76
2021/10/10 01:24:28;;;;;;;14.80;13.68;;;4.00;99.90;;;;;;4951700;29;20047;-75
2021/10/10 01:26:55;;;;;;;15.88;14.60;;;4.00;99.90;;;;;;4950679;29;20043;-76
2021/10/10 01:29:21;;;;;;;16.10;14.80;;;3.90;99.90;;;;;;4939673;29;20101;-75
2021/10/10 01:31:48;;;;;;;14.60;13.38;;;3.90;99.90;;;;;;4926219;29;20043;-75
2021/10/10 01:34:14;;;;;;;17.20;15.80;;;3.90;99.90;;;;;;4935875;29;20578;-75
2021/10/10 01:36:41;;;;;;;16.45;14.93;;;3.80;99.90;;;;;;4931396;29;20059;-75
2021/10/10 01:39:08;;;;;;;16.25;14.85;;;3.70;99.90;;;;;;4937568;29;20053;-75
2021/10/10 01:41:34;;;;;;;18.60;16.95;;;3.70;99.90;;;;;;4934654;29;20393;-75
2021/10/10 01:44:00;;;;;;;16.48;15.15;;;3.60;99.90;;;;;;4916650;29;20485;-75
2021/10/10 01:46:26;;;;;;;16.42;15.10;;;3.60;99.90;;;;;;4931449;29;20040;-75
2021/10/10 01:48:53;;;;;;;16.60;15.20;;;3.50;99.90;;;;;;4933874;29;20048;-76
2021/10/10 01:51:19;;;;;;;15.25;13.95;;;3.50;99.90;;;;;;4946155;29;20409;-75
2021/10/10 01:53:45;;;;;;;17.08;15.48;;;3.40;99.90;;;;;;4936225;28;20035;-75
2021/10/10 01:56:11;;;;;;;16.20;14.93;;;3.40;99.90;;;;;;4937846;29;20445;-75
2021/10/10 01:58:37;;;;;;;16.60;14.95;;;3.40;99.90;;;;;;4937557;29;20039;-75
2021/10/10 02:01:04;;;;;;;17.98;16.50;;;3.40;99.90;;;;;;4944555;29;20426;-75
2021/10/10 02:03:30;;;;;;;16.92;15.35;;;3.40;99.90;;;;;;4955323;29;20049;-75
2021/10/10 02:05:56;;;;;;;18.52;17.05;;;3.50;99.90;;;;;;4953600;29;20058;-76
2021/10/10 02:08:22;;;;;;;15.75;14.13;;;3.50;99.90;;;;;;4941661;29;20035;-75
2021/10/10 02:10:48;;;;;;;16.88;15.48;;;3.40;99.90;;;;;;4938513;29;20038;-75
2021/10/10 02:13:14;;;;;;;16.83;15.38;;;3.40;99.90;;;;;;4952067;29;20026;-75
2021/10/10 02:15:41;;;;;;;17.38;15.80;;;3.40;99.90;;;;;;4936895;29;20446;-75
2021/10/10 02:18:08;;;;;;;14.85;13.57;;;3.50;99.90;;;;;;4936908;29;20470;-76
2021/10/10 02:20:34;;;;;;;14.48;13.05;;;3.40;99.90;;;;;;4939303;29;20043;-75
2021/10/10 02:23:01;;;;;;;14.70;13.43;;;3.30;99.90;;;;;;4937289;29;20050;-75
2021/10/10 02:25:29;;;;;;;15.40;14.00;;;3.10;99.90;;;;;;4945100;29;20422;-75
2021/10/10 02:27:55;;;;;;;16.00;14.63;;;3.20;99.90;;;;;;4931825;29;20032;-76
2021/10/10 02:30:23;;;;;;;16.95;15.38;;;3.10;99.90;;;;;;4949116;29;20527;-73
2021/10/10 02:32:49;;;;;;;17.17;15.88;;;3.20;99.90;;;;;;4934782;29;20048;-75
2021/10/10 02:35:16;;;;;;;18.00;16.17;;;3.20;99.90;;;;;;4936882;29;20051;-75
2021/10/10 02:37:43;;;;;;;16.73;15.40;;;3.20;99.90;;;;;;4938136;29;20036;-75
2021/10/10 02:40:10;;;;;;;16.08;14.73;;;3.10;99.90;;;;;;4954324;29;20043;-75
2021/10/10 02:42:36;;;;;;;16.27;14.98;;;3.00;99.90;;;;;;4953707;29;20048;-75
2021/10/10 02:45:04;;;;;;;17.95;15.30;;;3.00;99.90;;;;;;4947331;29;20028;-76
2021/10/10 02:47:31;;;;;;;17.00;15.68;;;3.00;99.90;;;;;;4951219;29;20048;-75
2021/10/10 02:49:57;;;;;;;16.08;14.88;;;3.00;99.90;;;;;;4954384;29;20043;-76
2021/10/10 02:52:24;;;;;;;16.17;14.77;;;2.90;99.90;;;;;;4941644;29;20044;-75
2021/10/10 02:54:51;;;;;;;16.70;15.27;;;2.90;99.90;;;;;;4936894;29;20032;-75
2021/10/10 02:57:18;;;;;;;16.48;15.18;;;2.90;99.90;;;;;;4932942;29;20043;-75
2021/10/10 02:59:45;;;;;;;15.18;13.98;;;2.90;99.90;;;;;;4920190;29;20052;-75
2021/10/10 03:02:13;;;;;;;19.73;15.55;;;2.90;99.90;;;;;;4952091;29;20047;-75
2021/10/10 03:04:39;;;;;;;16.10;14.68;;;2.80;99.90;;;;;;4940594;29;20036;-75
2021/10/10 03:07:05;;;;;;;15.45;14.05;;;2.80;99.90;;;;;;4936642;29;20043;-75
2021/10/10 03:09:32;;;;;;;18.52;14.60;;;2.90;99.90;;;;;;4948995;29;20043;-75
2021/10/10 03:11:58;;;;;;;16.23;14.70;;;2.70;99.90;;;;;;4942820;29;20027;-76
2021/10/10 03:14:24;;;;;;;17.15;15.45;;;2.50;99.90;;;;;;4944119;29;20043;-75
2021/10/10 03:16:50;;;;;;;16.95;15.48;;;2.50;99.90;;;;;;4941554;29;20034;-74
2021/10/10 03:19:16;;;;;;;16.58;15.27;;;2.50;99.90;;;;;;4937628;29;20112;-75
2021/10/10 03:21:43;;;;;;;15.07;13.88;;;2.50;99.90;;;;;;4954776;29;20031;-74
2021/10/10 03:24:09;;;;;;;16.52;15.18;;;2.40;99.90;;;;;;4937544;29;20039;-75
2021/10/10 03:26:36;;;;;;;17.65;16.20;;;2.50;99.90;;;;;;4928617;29;20054;-75
2021/10/10 03:29:02;;;;;;;17.95;16.52;;;2.50;99.90;;;;;;4946804;29;20039;-75
2021/10/10 03:31:28;;;;;;;15.65;14.30;;;2.50;99.90;;;;;;4939541;29;20032;-75
2021/10/10 03:33:55;;;;;;;16.83;15.15;;;2.40;99.90;;;;;;4947384;29;20048;-76
2021/10/10 03:36:21;;;;;;;19.92;15.45;;;2.30;99.90;;;;;;4942279;29;20042;-75
2021/10/10 03:38:47;;;;;;;17.45;15.93;;;2.30;99.90;;;;;;4953637;29;20369;-75
2021/10/10 03:41:13;;;;;;;16.40;15.10;;;2.30;99.90;;;;;;4936513;29;20043;-75
2021/10/10 03:43:40;;;;;;;17.77;16.02;;;2.30;99.90;;;;;;4937454;29;20047;-75
2021/10/10 03:46:06;;;;;;;17.13;15.73;;;2.20;99.90;;;;;;4941288;29;20043;-74
2021/10/10 03:48:32;;;;;;;18.92;17.08;;;2.30;99.90;;;;;;4936382;29;20054;-74
2021/10/10 03:50:58;;;;;;;18.35;16.83;;;2.40;99.90;;;;;;4942771;29;20047;-75
2021/10/10 03:53:35;;;;;;;18.27;15.80;;;2.40;99.90;;;;;;4948891;29;20047;-74
2021/10/10 03:56:01;;;;;;;15.93;14.52;;;2.30;99.90;;;;;;4918453;29;20034;-74
2021/10/10 03:58:27;;;;;;;15.93;14.48;;;2.20;99.90;;;;;;4935721;29;20019;-74
2021/10/10 04:00:54;;;;;;;16.75;15.25;;;2.20;99.90;;;;;;4936020;29;20043;-74
2021/10/10 04:03:20;;;;;;;16.88;15.48;;;2.10;99.90;;;;;;4932526;29;20485;-74
2021/10/10 04:05:47;;;;;;;16.00;14.70;;;2.00;99.90;;;;;;4925114;29;20040;-74
2021/10/10 04:08:13;;;;;;;18.00;16.33;;;2.10;99.90;;;;;;4943355;29;20041;-74
2021/10/10 04:10:40;;;;;;;18.95;17.35;;;2.10;99.90;;;;;;4935642;29;20032;-74
2021/10/10 04:13:07;;;;;;;21.23;18.40;;;2.10;99.90;;;;;;4935402;29;20035;-74
2021/10/10 04:15:34;;;;;;;17.60;16.05;;;2.20;99.90;;;;;;4941074;28;20027;-74
2021/10/10 04:18:00;;;;;;;16.38;15.10;;;2.20;99.90;;;;;;4950730;29;20055;-75
2021/10/10 04:20:27;;;;;;;19.00;17.40;;;2.10;99.90;;;;;;4954766;29;20503;-74
2021/10/10 04:22:54;;;;;;;16.70;15.27;;;2.10;99.90;;;;;;4954807;29;20029;-74
2021/10/10 04:25:20;;;;;;;20.60;18.70;;;2.00;99.90;;;;;;4937474;29;20048;-73
2021/10/10 04:27:46;;;;;;;24.77;17.48;;;2.00;99.90;;;;;;4949330;29;20036;-74
2021/10/10 04:30:15;;;;;;;20.42;18.63;;;2.00;99.90;;;;;;4940396;29;20047;-73
2021/10/10 04:32:43;;;;;;;20.92;19.15;;;2.00;99.90;;;;;;4937590;29;20038;-74
2021/10/10 04:35:10;;;;;;;32.60;29.75;;;2.00;99.90;;;;;;4953982;29;20046;-74
2021/10/10 04:37:37;;;;;;;28.67;26.10;;;2.00;99.90;;;;;;4953834;29;20035;-74
2021/10/10 04:40:04;;;;;;;21.60;19.85;;;1.90;99.90;;;;;;4946467;29;20044;-74
2021/10/10 04:42:34;;;;;;;19.60;17.70;;;1.80;99.90;;;;;;4927885;29;20381;-74
2021/10/10 04:45:00;;;;;;;17.48;16.00;;;1.70;99.90;;;;;;4934852;29;20044;-75
2021/10/10 04:47:27;;;;;;;18.83;17.20;;;1.70;99.90;;;;;;4950383;29;20103;-74
2021/10/10 04:49:53;;;;;;;19.75;17.77;;;1.60;99.90;;;;;;4936058;29;20039;-74
2021/10/10 04:52:19;;;;;;;20.38;18.58;;;1.70;99.90;;;;;;4953869;29;20032;-74
2021/10/10 04:54:47;;;;;;;20.40;18.73;;;1.60;99.90;;;;;;4953216;29;20031;-74
2021/10/10 04:57:14;;;;;;;19.80;18.08;;;1.60;99.90;;;;;;4936741;29;20465;-74
2021/10/10 04:59:48;;;;;;;20.55;18.67;;;1.60;99.90;;;;;;4935153;29;20052;-74
2021/10/10 05:02:14;;;;;;;22.13;20.23;;;1.60;99.90;;;;;;4934511;29;20059;-74
2021/10/10 05:04:40;;;;;;;20.17;18.33;;;1.70;99.90;;;;;;4948912;29;20042;-74
2021/10/10 05:07:06;;;;;;;20.02;18.20;;;1.60;99.90;;;;;;4937278;29;20043;-74
2021/10/10 05:09:33;;;;;;;21.40;19.70;;;1.70;99.90;;;;;;4953058;29;20061;-74
2021/10/10 05:11:59;;;;;;;23.23;20.80;;;1.80;99.90;;;;;;4935729;29;20043;-75
2021/10/10 05:14:25;;;;;;;23.20;21.38;;;1.80;99.90;;;;;;4936992;29;20039;-74
2021/10/10 05:16:51;;;;;;;20.83;18.70;;;1.90;99.90;;;;;;4935035;29;20058;-74
2021/10/10 05:19:17;;;;;;;21.70;19.80;;;1.80;99.90;;;;;;4949558;29;20042;-73
2021/10/10 05:21:44;;;;;;;20.10;18.48;;;1.80;99.90;;;;;;4956640;29;20069;-74
2021/10/10 05:24:10;;;;;;;21.45;19.52;;;1.70;99.90;;;;;;4956453;29;20028;-75
2021/10/10 05:26:37;;;;;;;22.63;20.83;;;1.70;99.90;;;;;;4921879;29;20039;-76
2021/10/10 05:29:03;;;;;;;23.02;21.23;;;1.70;99.90;;;;;;4957341;28;20046;-75
2021/10/10 05:31:30;;;;;;;24.27;21.92;;;1.70;99.90;;;;;;4942597;29;20462;-75
2021/10/10 05:33:56;;;;;;;22.65;20.77;;;1.80;99.90;;;;;;4940274;29;20040;-74
2021/10/10 05:36:22;;;;;;;23.05;21.20;;;1.80;99.90;;;;;;4955828;29;20365;-74
2021/10/10 05:38:49;;;;;;;22.67;20.75;;;1.80;99.90;;;;;;4940138;29;20039;-74
2021/10/10 05:41:15;;;;;;;21.58;19.77;;;1.80;99.90;;;;;;4945468;29;20046;-73
2021/10/10 05:43:41;;;;;;;20.83;19.25;;;1.80;99.90;;;;;;4959555;29;20031;-74
2021/10/10 05:46:07;;;;;;;23.67;21.50;;;1.90;99.90;;;;;;4954171;29;20032;-74
2021/10/10 05:48:34;;;;;;;22.75;20.83;;;1.90;99.90;;;;;;4939488;29;20036;-74
2021/10/10 05:51:00;;;;;;;22.13;20.23;;;1.80;99.90;;;;;;4938206;29;20141;-75
2021/10/10 05:53:26;;;;;;;22.15;20.40;;;1.70;99.90;;;;;;4936426;29;20040;-74
2021/10/10 05:56:00;;;;;;;20.80;19.02;;;1.60;99.90;;;;;;4922140;29;20036;-74
2021/10/10 05:58:28;;;;;;;21.38;19.58;;;1.60;99.90;;;;;;4951614;29;20033;-74
2021/10/10 06:00:55;;;;;;;23.80;21.55;;;1.80;99.90;;;;;;4947524;29;20050;-74
2021/10/10 06:03:21;;;;;;;27.10;24.23;;;1.90;99.90;;;;;;4921817;29;20082;-74
2021/10/10 06:05:47;;;;;;;25.58;20.00;;;2.00;99.90;;;;;;4930512;29;20039;-75
2021/10/10 06:08:14;;;;;;;22.98;20.95;;;1.90;99.90;;;;;;4946234;29;20031;-73
2021/10/10 06:10:42;;;;;;;22.65;20.55;;;1.90;99.90;;;;;;4937937;29;20473;-73
2021/10/10 06:13:08;;;;;;;23.10;21.00;;;1.90;99.90;;;;;;4937785;29;20381;-73
2021/10/10 06:15:35;;;;;;;24.65;22.42;;;2.00;99.90;;;;;;4939530;29;20046;-72
2021/10/10 06:18:01;;;;;;;23.15;21.15;;;2.20;99.90;;;;;;4956622;29;20039;-74
2021/10/10 06:20:28;;;;;;;24.20;21.92;;;2.30;99.90;;;;;;4958381;29;20046;-74
2021/10/10 06:22:54;;;;;;;23.92;21.60;;;2.40;99.90;;;;;;4958522;29;20034;-74
2021/10/10 06:25:21;;;;;;;25.95;18.40;;;2.50;99.90;;;;;;4954760;29;20534;-73
2021/10/10 06:27:47;;;;;;;21.70;19.65;;;2.60;99.90;;;;;;4941382;29;20038;-75
2021/10/10 06:30:13;;;;;;;21.67;19.77;;;2.90;99.90;;;;;;4940802;29;20061;-75
2021/10/10 06:32:40;;;;;;;22.65;20.25;;;3.80;99.90;;;;;;4955766;29;20031;-75
2021/10/10 06:35:07;;;;;;;21.55;19.75;;;4.60;99.90;;;;;;4956123;29;20148;-75
2021/10/10 06:37:34;;;;;;;16.38;15.00;;;5.10;99.90;;;;;;4938178;29;20047;-74
2021/10/10 06:40:01;;;;;;;20.98;16.35;;;5.50;99.90;;;;;;4935011;29;20051;-76
2021/10/10 06:42:27;;;;;;;19.98;17.17;;;5.50;99.90;;;;;;4948528;29;20038;-74
2021/10/10 06:44:54;;;;;;;19.48;16.27;;;5.20;99.90;;;;;;4947769;29;20031;-74
2021/10/10 06:47:20;;;;;;;15.80;14.55;;;4.80;99.90;;;;;;4952642;29;20035;-75
2021/10/10 06:49:46;;;;;;;16.52;15.13;;;4.70;99.90;;;;;;4937893;29;20046;-74
2021/10/10 06:52:13;;;;;;;14.60;13.23;;;4.80;99.90;;;;;;4954256;29;20043;-73
2021/10/10 06:54:41;;;;;;;11.85;10.95;;;4.80;99.90;;;;;;4926863;29;20043;-74
2021/10/10 06:57:07;;;;;;;13.00;11.88;;;4.60;99.90;;;;;;4954296;29;20116;-74
2021/10/10 06:59:33;;;;;;;14.90;13.18;;;4.50;99.90;;;;;;4938286;29;20043;-73
2021/10/10 07:01:59;;;;;;;14.32;12.90;;;4.60;99.90;;;;;;4930644;29;20048;-74
2021/10/10 07:04:26;;;;;;;14.23;12.65;;;4.70;99.90;;;;;;4920900;29;20154;-73
2021/10/10 07:06:52;;;;;;;14.85;13.60;;;4.80;99.90;;;;;;4950975;29;20094;-74
2021/10/10 07:09:18;;;;;;;13.43;12.25;;;5.10;99.90;;;;;;4954422;29;20616;-74
2021/10/10 07:11:44;;;;;;;15.77;14.32;;;5.30;99.90;;;;;;4939434;29;20052;-74
2021/10/10 07:14:14;;;;;;;15.85;14.52;;;5.70;99.90;;;;;;4940183;29;20046;-76
2021/10/10 07:16:43;;;;;;;16.88;15.35;;;6.20;99.90;;;;;;4909338;29;20052;-74
2021/10/10 07:19:10;;;;;;;17.23;15.63;;;6.30;99.90;;;;;;4929790;29;20042;-74
2021/10/10 07:22:27;;;;;;;16.33;14.98;;;6.20;99.90;;;;;;4953339;28;20054;-75
2021/10/10 07:25:05;;;;;;;21.05;17.52;;;6.60;99.90;;;;;;4928318;29;20047;-75
2021/10/10 07:27:41;;;;;;;15.25;13.82;;;7.60;99.90;;;;;;4956274;29;20035;-74
2021/10/10 07:30:11;;;;;;;16.48;14.95;;;9.00;99.90;;;;;;4963503;29;20038;-75
2021/10/10 07:32:47;;;;;;;15.65;12.40;;;9.30;97.10;;;;;;4944107;29;20051;-76
2021/10/10 07:35:14;;;;;;;16.15;12.85;;;9.30;96.40;;;;;;4935676;29;20039;-76
2021/10/10 07:37:44;;;;;;;16.13;14.45;;;9.30;95.20;;;;;;4948369;29;20050;-75
2021/10/10 07:40:15;;;;;;;13.07;11.07;;;9.30;95.10;;;;;;4943933;29;20067;-75
2021/10/10 07:42:42;;;;;;;10.68;9.68;;;8.80;95.20;;;;;;4938973;29;20054;-75
2021/10/10 07:45:13;;;;;;;20.13;11.98;;;9.00;95.30;;;;;;4922445;29;20044;-76
2021/10/10 07:47:51;;;;;;;18.10;11.27;;;8.90;95.30;;;;;;4909761;29;20032;-72
2021/10/10 07:50:22;;;;;;;13.57;9.98;;;8.90;95.90;;;;;;4906634;29;20052;-75
2021/10/10 07:52:49;;;;;;;13.43;11.30;;;9.30;94.80;;;;;;4940301;29;20054;-72
2021/10/10 07:55:16;;;;;;;12.52;11.35;;;9.80;93.50;;;;;;4936230;29;20425;-75
2021/10/10 07:57:42;;;;;;;14.32;11.30;;;9.70;93.00;;;;;;4926924;29;20087;-74
2021/10/10 08:00:10;;;;;;;12.25;11.02;;;10.00;92.40;;;;;;4922469;29;20520;-73
2021/10/10 08:03:14;;;;;;;12.15;10.77;;;9.60;92.70;;;;;;4936976;29;20064;-75
2021/10/10 08:05:46;;;;;;;12.48;10.85;;;9.90;92.90;;;;;;4922329;29;20041;-74
2021/10/10 08:08:13;;;;;;;12.65;11.18;;;9.90;92.40;;;;;;4942389;29;20481;-77
2021/10/10 08:10:40;;;;;;;12.13;10.80;;;9.80;92.40;;;;;;4947008;29;20054;-76
2021/10/10 08:13:07;;;;;;;14.20;10.93;;;10.10;92.30;;;;;;4928795;29;20028;-77
2021/10/10 08:15:35;;;;;;;10.32;8.93;;;10.80;91.00;;;;;;4945712;29;20039;-77
2021/10/10 08:18:02;;;;;;;10.05;9.02;;;11.70;86.10;;;;;;4938646;29;20055;-79
2021/10/10 08:20:38;;;;;;;12.40;10.05;;;10.80;86.30;;;;;;4960738;28;20019;-77
2021/10/10 08:23:12;;;;;;;10.70;9.73;;;10.60;88.60;;;;;;4932682;29;20039;-77
2021/10/10 08:25:38;;;;;;;11.20;10.20;;;10.10;88.30;;;;;;4968652;29;20036;-77
2021/10/10 08:28:10;;;;;;;10.23;8.95;;;10.30;88.90;;;;;;4962979;29;20039;-78
2021/10/10 08:30:37;;;;;;;11.20;10.13;;;11.30;86.10;;;;;;4947203;29;20054;-76
2021/10/10 08:33:04;;;;;;;12.73;11.43;;;11.60;83.80;;;;;;4946572;29;20400;-77
2021/10/10 08:35:35;;;;;;;11.27;10.20;;;11.50;83.40;;;;;;4965576;29;20070;-77
2021/10/10 08:38:03;;;;;;;10.50;9.52;;;11.30;84.80;;;;;;4940126;29;20031;-77
2021/10/10 08:40:32;;;;;;;10.05;9.05;;;11.40;84.30;;;;;;4960885;29;20044;-77
2021/10/10 08:43:01;;;;;;;9.88;9.07;;;11.70;84.10;;;;;;4955127;29;20031;-77
2021/10/10 08:45:30;;;;;;;10.75;9.75;;;12.30;79.20;;;;;;4950612;29;20038;-77
2021/10/10 08:48:03;;;;;;;12.00;10.05;;;12.40;78.40;;;;;;4949500;29;20031;-78
2021/10/10 08:50:30;;;;;;;12.43;11.20;;;11.40;80.70;;;;;;4934586;29;20780;-78
2021/10/10 08:53:00;;;;;;;11.15;10.02;;;11.10;83.60;;;;;;4964259;29;20031;-78
2021/10/10 08:55:28;;;;;;;10.93;9.80;;;11.40;83.10;;;;;;4929185;29;20465;-79
2021/10/10 08:57:57;;;;;;;11.57;10.45;;;11.40;83.00;;;;;;4948724;29;20043;-79
2021/10/10 09:00:33;;;;;;;11.75;10.10;;;11.30;82.00;;;;;;4964737;29;20374;-77
2021/10/10 09:03:01;;;;;;;11.05;10.13;;;11.50;81.40;;;;;;4961603;28;20047;-78
2021/10/10 09:05:54;;;;;;;10.75;9.75;;;12.70;80.00;;;;;;4962135;29;20399;-75
2021/10/10 09:08:22;;;;;;;11.27;10.23;;;12.70;77.60;;;;;;4948415;29;20050;-78
2021/10/10 09:10:59;;;;;;;12.85;9.90;;;12.70;77.00;;;;;;4965287;29;20039;-78
2021/10/10 09:13:33;;;;;;;10.32;9.48;;;12.80;76.20;;;;;;4959288;29;20050;-79
2021/10/10 09:16:00;;;;;;;11.63;10.23;;;12.50;75.30;;;;;;4934724;29;20027;-77
2021/10/10 09:18:39;;;;;;;14.68;10.55;;;13.00;75.70;;;;;;4941919;29;20031;-75
2021/10/10 09:21:23;;;;;;;16.35;12.73;;;13.50;73.90;;;;;;4935096;29;20043;-76
2021/10/10 09:23:52;;;;;;;12.55;11.02;;;12.80;74.20;;;;;;4935268;29;20028;-75
2021/10/10 09:26:20;;;;;;;12.07;11.00;;;12.50;74.80;;;;;;4934508;29;20028;-77
2021/10/10 09:28:47;;;;;;;14.80;11.52;;;12.60;74.50;;;;;;4934685;29;20039;-78
2021/10/10 09:31:14;;;;;;;13.50;12.05;;;12.50;76.40;;;;;;4947729;29;20074;-75
2021/10/10 09:33:44;;;;;;;11.57;10.40;;;13.00;73.50;;;;;;4943483;29;20055;-74
2021/10/10 09:36:22;;;;;;;13.15;11.95;;;13.00;72.70;;;;;;4946550;29;20038;-75
2021/10/10 09:39:05;;;;;;;17.05;12.73;;;11.90;75.00;;;;;;4923895;29;20492;-74
2021/10/10 09:46:44;;;;;;;12.93;11.75;;;11.60;76.80;;;;;;4942446;29;20054;-74
2021/10/10 09:49:21;;;;;;;;;;;12.10;78.60;;;;;;4943498;29;20043;-75
2021/10/10 09:51:47;;;;;;;12.02;11.05;;;12.60;75.20;;;;;;4935909;29;19917;-74
2021/10/10 09:54:13;;;;;;;13.38;12.15;;;12.50;74.30;;;;;;4938142;29;20074;-75
2021/10/10 09:57:02;;;;;;;15.20;13.77;;;12.40;76.00;;;;;;4943455;29;20043;-74
2021/10/10 09:59:28;;;;;;;14.82;13.55;;;12.20;75.60;;;;;;4934034;29;20454;-76
2021/10/10 10:01:54;;;;;;;13.82;12.43;;;12.10;76.70;;;;;;4933838;29;20053;-73
2021/10/10 10:04:21;;;;;;;21.58;12.63;;;12.20;75.60;;;;;;4933902;29;20469;-73
2021/10/10 10:06:47;;;;;;;17.02;13.63;;;12.10;75.60;;;;;;4946296;29;20039;-74
2021/10/10 10:09:13;;;;;;;14.57;13.10;;;11.80;76.40;;;;;;4950881;29;20503;-74
2021/10/10 10:11:42;;;;;;;17.30;13.25;;;11.80;76.40;;;;;;4935975;29;20035;-73
2021/10/10 10:14:16;;;;;;;14.70;12.13;;;11.90;76.60;;;;;;4940961;29;20044;-74
2021/10/10 10:16:45;;;;;;;15.40;13.90;;;12.00;76.10;;;;;;4953586;29;20107;-73
2021/10/10 10:19:18;;;;;;;14.25;13.05;;;12.20;76.70;;;;;;4943616;29;20379;-73
2021/10/10 10:21:56;;;;;;;14.50;13.18;;;12.20;76.30;;;;;;4950586;29;20039;-74
2021/10/10 10:24:24;;;;;;;13.63;12.38;;;12.20;76.60;;;;;;4939416;29;20046;-73
2021/10/10 10:26:50;;;;;;;14.95;13.57;;;12.30;76.20;;;;;;4952438;29;20042;-73
2021/10/10 10:29:26;;;;;;;17.17;14.10;;;12.40;75.70;;;;;;4955334;29;20035;-73
2021/10/10 10:31:59;;;;;;;16.73;12.35;;;12.60;75.00;;;;;;4955353;29;20046;-73
2021/10/10 10:34:29;;;;;;;14.77;13.38;;;12.60;74.60;;;;;;4951731;29;20564;-73
2021/10/10 10:37:03;;;;;;;15.23;13.80;;;12.70;74.60;;;;;;4942621;29;20038;-73
2021/10/10 10:39:40;;;;;;;20.65;15.95;;;12.80;73.80;;;;;;4947384;29;20035;-73
2021/10/10 10:42:26;;;;;;;14.98;13.80;;;12.70;74.50;;;;;;4940544;29;20038;-73
2021/10/10 10:44:55;;;;;;;15.60;14.05;;;13.20;71.60;;;;;;4952154;29;20109;-73
2021/10/10 10:47:25;;;;;;;16.50;15.13;;;13.30;71.20;;;;;;4937873;29;20461;-73
2021/10/10 10:49:54;;;;;;;15.95;14.55;;;13.30;70.70;;;;;;4937917;29;20031;-74
2021/10/10 10:52:29;;;;;;;15.63;13.88;;;13.30;71.90;;;;;;4936414;29;20035;-74
2021/10/10 10:55:16;;;;;;;18.77;15.23;;;13.20;72.60;;;;;;4946484;29;20107;-74
2021/10/10 10:57:48;;;;;;;16.52;15.02;;;13.10;71.40;;;;;;4941724;29;20051;-73
2021/10/10 11:00:20;;;;;;;15.68;13.63;;;13.00;72.20;;;;;;4953667;29;20035;-74
2021/10/10 11:02:58;;;;;;;17.20;13.77;;;13.20;71.80;;;;;;4954708;29;20055;-74
2021/10/10 11:05:31;;;;;;;19.58;15.18;;;13.20;71.70;;;;;;4953569;29;20054;-74
2021/10/10 11:08:19;;;;;;;17.02;14.77;;;13.30;70.60;;;;;;4935735;29;20044;-73
2021/10/10 11:11:03;;;;;;;21.73;14.93;;;13.30;70.40;;;;;;4937372;29;20043;-72
2021/10/10 11:13:35;;;;;;;14.63;13.20;;;13.50;71.10;;;;;;4954434;29;20376;-73
2021/10/10 11:16:12;;;;;;;14.32;12.95;;;13.70;69.70;;;;;;4950072;29;20043;-73
2021/10/10 11:18:57;;;;;;;15.35;13.73;;;13.60;68.80;;;;;;4934484;29;20035;-73
2021/10/10 11:21:24;;;;;;;15.98;13.65;;;13.60;70.70;;;;;;4936522;29;20501;-74
2021/10/10 11:23:57;;;;;;;16.15;14.20;;;13.40;70.30;;;;;;4948979;29;20054;-73
2021/10/10 11:26:25;;;;;;;16.83;14.10;;;13.40;69.70;;;;;;4945292;29;20035;-73
2021/10/10 11:28:53;;;;;;;14.77;13.55;;;13.60;69.50;;;;;;4951546;29;20036;-74
2021/10/10 11:31:20;;;;;;;15.73;14.07;;;13.90;68.60;;;;;;4922676;29;20062;-73
2021/10/10 11:33:58;;;;;;;15.05;13.75;;;13.90;67.50;;;;;;4956065;29;20036;-74
2021/10/10 11:36:46;;;;;;;17.58;14.32;;;13.80;67.50;;;;;;4936671;29;20032;-72
2021/10/10 11:39:16;;;;;;;17.95;16.20;;;13.60;68.00;;;;;;4936284;29;20039;-72
2021/10/10 11:41:45;;;;;;;21.60;14.80;;;13.70;68.10;;;;;;4936891;29;20031;-73
2021/10/10 11:44:17;;;;;;;16.48;14.52;;;13.70;68.20;;;;;;4918849;29;20043;-73
2021/10/10 11:46:51;;;;;;;15.63;14.20;;;14.00;67.30;;;;;;4941486;29;20054;-74
2021/10/10 11:49:44;;;;;;;18.92;14.20;;;13.80;66.90;;;;;;4935647;29;20028;-74
2021/10/10 11:52:38;;;;;;;15.80;13.88;;;13.70;67.10;;;;;;4936626;29;20373;-73
2021/10/10 11:55:21;;;;;;;15.75;14.23;;;13.90;67.20;;;;;;4953353;29;20058;-76
2021/10/10 11:58:01;;;;;;;14.65;13.25;;;14.10;65.60;;;;;;4935091;29;20044;-75
2021/10/10 12:00:32;;;;;;;15.40;13.80;;;14.10;65.70;;;;;;4935029;29;20035;-74
2021/10/10 12:03:05;;;;;;;14.93;13.32;;;14.30;65.70;;;;;;4942922;29;20054;-75
2021/10/10 12:05:42;;;;;;;16.10;13.52;;;14.40;65.40;;;;;;4947079;29;20469;-74
2021/10/10 12:08:23;;;;;;;14.82;13.43;;;14.40;65.70;;;;;;4936068;29;20465;-75
2021/10/10 12:10:49;;;;;;;;;;;14.50;64.40;;;;;;4953549;29;20031;-73
2021/10/10 12:13:18;;;;;;;14.40;13.00;;;14.60;64.20;;;;;;4943140;29;19915;-74
2021/10/10 12:15:44;;;;;;;15.30;13.70;;;14.60;63.50;;;;;;4953668;29;20432;-73
2021/10/10 12:18:16;;;;;;;19.65;13.43;;;14.60;63.50;;;;;;4954258;29;20043;-75
2021/10/10 12:20:42;;;;;;;13.68;12.35;;;14.80;63.60;;;;;;4954189;29;20046;-73
2021/10/10 12:23:11;;;;;;;15.02;13.55;;;15.10;62.90;;;;;;4937379;29;20031;-74
2021/10/10 12:25:40;;;;;;;13.40;12.13;;;14.80;62.90;;;;;;4935083;29;20035;-74
2021/10/10 12:28:11;;;;;;;12.43;11.32;;;14.80;62.50;;;;;;4943391;29;20070;-76
2021/10/10 12:30:56;;;;;;;;;;;14.70;62.60;;;;;;4952932;29;20353;-74
2021/10/10 12:33:28;;;;;;;14.90;11.05;;;15.00;62.40;;;;;;4947553;29;19922;-74
2021/10/10 12:35:59;;;;;;;11.82;10.32;;;15.10;60.70;;;;;;4935058;29;20042;-73
2021/10/10 12:38:35;;;;;;;12.55;11.13;;;15.00;60.00;;;;;;4946391;29;20051;-74
2021/10/10 12:41:24;;;;;;;12.15;10.88;;;14.80;61.20;;;;;;4939827;29;20040;-75
2021/10/10 12:43:53;;;;;;;12.23;10.60;;;15.10;61.40;;;;;;4935755;29;20039;-74
2021/10/10 12:46:21;;;;;;;12.38;10.82;;;15.30;61.50;;;;;;4934186;29;20417;-73
2021/10/10 12:49:03;;;;;;;12.63;11.43;;;15.40;61.80;;;;;;4935256;29;20118;-74
2021/10/10 12:51:29;;;;;;;11.82;10.63;;;15.50;61.20;;;;;;4934552;29;20039;-73